Time;durP1;ratioP1;P1;durP2;ratioP2;P2;SDS_P1;SDS_P2;PMS_P1;PMS_P2;Temp;Humidity;BMP_temperature;BMP_pressure;BME280_temperature;BME280_humidity;BME280_pressure;Samples;Min_cycle;Max_cycle;Signal;HPM_P1;HPM_P2
2021/04/05 00:05:56;;;;;;;3.55;2.25;;;15.30;33.30;;;;;;20754744;28;20018;-58
2021/04/05 00:15:57;;;;;;;5.70;2.55;;;15.70;32.80;;;;;;20760364;28;20033;-57
2021/04/05 00:25:58;;;;;;;5.72;2.60;;;15.30;33.70;;;;;;20760253;28;20478;-57
2021/04/05 00:35:59;;;;;;;5.32;2.80;;;14.90;34.40;;;;;;20757627;28;20061;-58
2021/04/05 00:46:00;;;;;;;4.22;2.55;;;14.80;35.00;;;;;;20756266;28;20109;-58
2021/04/05 00:56:02;;;;;;;3.60;2.40;;;14.70;35.70;;;;;;20756558;28;20046;-57
2021/04/05 01:06:06;;;;;;;3.58;2.42;;;14.60;36.30;;;;;;20756301;28;20564;-57
2021/04/05 01:16:06;;;;;;;4.03;2.33;;;14.50;36.90;;;;;;20756730;28;20060;-57
2021/04/05 01:26:07;;;;;;;6.88;3.00;;;14.40;37.40;;;;;;20755143;28;20102;-57
2021/04/05 01:36:12;;;;;;;5.78;2.92;;;14.30;37.80;;;;;;20754762;28;20042;-58
2021/04/05 01:46:14;;;;;;;5.22;2.75;;;14.20;38.40;;;;;;20754395;28;20449;-58
2021/04/05 01:56:17;;;;;;;5.18;2.70;;;14.10;39.00;;;;;;20752862;28;20058;-58
2021/04/05 02:06:26;;;;;;;5.13;2.95;;;14.00;39.60;;;;;;20751967;28;20022;-58
2021/04/05 02:16:28;;;;;;;6.28;3.33;;;14.00;40.10;;;;;;20751300;28;20038;-58
2021/04/05 02:26:31;;;;;;;4.22;2.70;;;13.90;40.80;;;;;;20750524;28;20032;-57
2021/04/05 02:36:33;;;;;;;6.85;3.30;;;13.80;41.50;;;;;;20750411;28;20052;-57
2021/04/05 02:46:35;;;;;;;7.22;3.78;;;13.80;42.40;;;;;;20750153;28;20102;-57
2021/04/05 02:56:38;;;;;;;8.70;4.40;;;13.70;42.60;;;;;;20749004;28;20084;-58
2021/04/05 03:06:39;;;;;;;4.93;3.60;;;13.60;43.10;;;;;;20749076;28;20588;-58
2021/04/05 03:16:41;;;;;;;7.55;3.55;;;13.50;43.40;;;;;;20749749;28;20431;-59
2021/04/05 03:26:42;;;;;;;7.00;3.90;;;13.40;43.70;;;;;;20748651;28;20105;-58
2021/04/05 03:37:05;;;;;;;7.75;3.58;;;13.30;44.50;;;;;;20754186;28;20072;-58
2021/04/05 03:47:31;;;;;;;6.28;3.90;;;13.30;44.50;;;;;;20763238;28;20041;-58
2021/04/05 03:57:35;;;;;;;8.38;5.20;;;13.30;44.50;;;;;;20762230;28;20050;-58
2021/04/05 04:07:41;;;;;;;5.87;4.00;;;13.20;45.60;;;;;;20760943;28;20030;-59
2021/04/05 04:17:46;;;;;;;8.10;5.00;;;13.00;46.40;;;;;;20760947;28;20510;-58
2021/04/05 04:27:47;;;;;;;9.13;4.93;;;13.00;46.80;;;;;;20759668;28;20026;-58
2021/04/05 04:37:48;;;;;;;6.40;4.97;;;12.80;46.90;;;;;;20758796;28;20038;-57
2021/04/05 04:47:51;;;;;;;8.15;5.18;;;12.70;47.40;;;;;;20757710;28;20026;-58
2021/04/05 04:58:02;;;;;;;8.25;5.05;;;12.50;48.30;;;;;;20757222;28;20141;-57
2021/04/05 05:08:05;;;;;;;9.88;5.88;;;12.30;49.00;;;;;;20756721;28;20037;-57
2021/04/05 05:18:06;;;;;;;6.40;4.78;;;12.30;49.30;;;;;;20755996;28;20038;-58
2021/04/05 05:28:10;;;;;;;7.00;4.75;;;12.20;49.70;;;;;;20755562;28;20045;-57
2021/04/05 05:38:14;;;;;;;8.03;4.60;;;12.20;50.00;;;;;;20763826;28;20069;-58
2021/04/05 05:48:24;;;;;;;8.50;4.80;;;12.10;50.60;;;;;;20759565;28;20386;-56
2021/04/05 05:59:03;;;;;;;9.10;5.13;;;11.90;50.50;;;;;;20752345;28;20057;-58
2021/04/05 06:09:16;;;;;;;7.78;4.93;;;11.70;50.90;;;;;;20734523;28;20075;-57
2021/04/05 06:19:41;;;;;;;10.95;5.10;;;11.60;51.60;;;;;;20752085;28;20513;-57
2021/04/05 06:30:00;;;;;;;11.70;5.40;;;11.70;51.40;;;;;;20750664;28;20030;-57
2021/04/05 06:40:06;;;;;;;9.30;5.50;;;11.70;51.70;;;;;;20750041;28;20132;-57
2021/04/05 06:50:22;;;;;;;13.00;5.00;;;11.70;51.90;;;;;;20749188;28;20375;-57
2021/04/05 07:00:47;;;;;;;14.63;7.28;;;12.00;51.00;;;;;;20749202;28;20155;-58
2021/04/05 07:11:25;;;;;;;13.43;6.25;;;12.20;50.70;;;;;;20751690;28;20083;-58
2021/04/05 07:21:40;;;;;;;10.55;6.15;;;12.50;49.80;;;;;;20765196;28;20038;-57
2021/04/05 07:32:08;;;;;;;11.23;7.15;;;12.70;49.60;;;;;;20764482;28;20033;-58
2021/04/05 07:42:33;;;;;;;20.88;12.10;;;13.00;48.60;;;;;;20762654;28;20044;-59
2021/04/05 07:52:42;;;;;;;;;;;13.40;47.30;;;;;;20762774;28;20156;-58
2021/04/05 08:02:56;;;;;;;11.40;7.57;;;13.60;47.20;;;;;;20761484;28;20326;-58
2021/04/05 08:13:19;;;;;;;11.00;7.63;;;14.20;46.20;;;;;;20761005;28;20033;-58
2021/04/05 08:23:48;;;;;;;13.00;6.45;;;14.60;46.00;;;;;;20741514;28;20068;-58
2021/04/05 08:34:29;;;;;;;15.48;6.88;;;15.10;46.60;;;;;;20743476;28;20485;-58
2021/04/05 08:44:33;;;;;;;11.05;6.82;;;15.30;47.20;;;;;;20758622;28;20026;-58
2021/04/05 08:54:38;;;;;;;13.03;7.47;;;15.70;47.20;;;;;;20756435;28;20054;-58
2021/04/05 09:04:41;;;;;;;15.90;6.43;;;15.90;48.60;;;;;;20757497;28;20037;-58
2021/04/05 09:15:20;;;;;;;16.17;7.25;;;16.10;49.50;;;;;;20754148;28;20057;-57
2021/04/05 09:25:48;;;;;;;9.45;6.72;;;16.20;48.70;;;;;;20347900;29;20032;-58
2021/04/05 09:36:15;;;;;;;13.60;7.88;;;16.50;48.90;;;;;;20345835;29;20075;-60
2021/04/05 09:46:50;;;;;;;12.45;5.65;;;16.80;48.70;;;;;;20345896;29;20088;-57
2021/04/05 09:57:01;;;;;;;13.48;6.85;;;17.40;48.20;;;;;;20471514;28;20066;-56
2021/04/05 10:07:07;;;;;;;14.57;8.52;;;17.90;47.30;;;;;;20731269;28;20501;-56
2021/04/05 10:17:10;;;;;;;12.60;6.80;;;18.10;47.60;;;;;;20752226;28;20046;-55
2021/04/05 10:27:16;;;;;;;18.60;7.33;;;18.20;47.50;;;;;;20751254;28;20018;-57
2021/04/05 10:37:22;;;;;;;9.25;6.22;;;18.40;48.00;;;;;;20749939;28;20045;-57
2021/04/05 10:47:38;;;;;;;13.57;7.25;;;18.60;47.90;;;;;;20748939;28;20072;-58
2021/04/05 10:57:42;;;;;;;15.80;9.55;;;18.70;47.80;;;;;;20749204;28;20405;-58
2021/04/05 11:07:48;;;;;;;15.32;7.63;;;18.80;47.70;;;;;;20728283;28;20035;-57
2021/04/05 11:17:52;;;;;;;11.10;6.40;;;19.10;47.90;;;;;;20703321;28;20482;-57
2021/04/05 11:28:07;;;;;;;15.85;7.53;;;19.20;48.10;;;;;;20704264;28;20030;-57
2021/04/05 11:38:12;;;;;;;13.77;6.47;;;19.20;47.80;;;;;;20723429;28;20068;-58
2021/04/05 11:48:20;;;;;;;13.77;7.32;;;19.40;46.70;;;;;;20746029;28;20417;-64
2021/04/05 11:58:32;;;;;;;11.40;6.10;;;19.50;44.00;;;;;;20695774;28;20502;-61
2021/04/05 12:08:45;;;;;;;13.95;7.28;;;19.70;44.80;;;;;;20676538;28;20470;-55
2021/04/05 12:18:49;;;;;;;;;;;19.90;44.50;;;;;;20639752;28;20485;-56
2021/04/05 12:28:53;;;;;;;13.35;7.90;;;19.90;42.00;;;;;;20676792;28;19916;-61
2021/04/05 12:38:55;;;;;;;11.02;7.43;;;20.20;39.90;;;;;;20676089;28;20038;-62
2021/04/05 12:49:00;;;;;;;16.13;7.32;;;20.20;39.60;;;;;;20676990;28;20026;-63
2021/04/05 12:59:02;;;;;;;14.93;7.35;;;20.50;38.00;;;;;;20676214;28;20088;-62
2021/04/05 13:09:31;;;;;;;17.15;7.93;;;20.50;38.60;;;;;;20674878;28;20026;-62
2021/04/05 13:19:55;;;;;;;17.50;8.88;;;20.70;38.70;;;;;;20426543;29;20040;-62
2021/04/05 13:29:59;;;;;;;8.57;6.40;;;21.00;37.80;;;;;;20425936;29;20040;-61
2021/04/05 13:40:00;;;;;;;;;;;21.10;35.40;;;;;;20425568;29;20110;-60
2021/04/05 13:50:06;;;;;;;9.48;5.45;;;21.00;33.20;;;;;;20484090;28;20388;-66
2021/04/05 14:00:12;;;;;;;10.88;6.60;;;21.20;32.50;;;;;;20670921;28;20046;-63
2021/04/05 14:10:15;;;;;;;12.05;7.63;;;21.40;32.50;;;;;;20670901;28;20053;-62
2021/04/05 14:20:38;;;;;;;11.60;4.97;;;21.30;30.50;;;;;;20669819;28;20113;-62
2021/04/05 14:30:41;;;;;;;8.73;5.17;;;21.60;32.20;;;;;;20669436;28;20478;-64
2021/04/05 14:40:45;;;;;;;10.85;5.22;;;21.60;31.30;;;;;;20651015;28;20050;-63
2021/04/05 14:50:52;;;;;;;7.60;4.10;;;21.70;29.40;;;;;;20668723;28;20029;-61
2021/04/05 15:01:07;;;;;;;8.15;3.13;;;21.80;29.40;;;;;;20667708;28;20061;-63
2021/04/05 15:11:12;;;;;;;4.28;2.85;;;22.00;27.50;;;;;;20666468;28;20034;-65
2021/04/05 15:21:14;;;;;;;10.05;4.65;;;22.00;25.90;;;;;;20665207;28;20062;-60
2021/04/05 15:31:18;;;;;;;8.73;3.70;;;22.00;30.30;;;;;;20667160;28;20030;-61
2021/04/05 15:41:24;;;;;;;6.97;3.55;;;21.90;29.40;;;;;;20682396;28;20121;-62
2021/04/05 15:51:30;;;;;;;9.52;3.80;;;21.90;28.90;;;;;;20682319;28;20073;-62
2021/04/05 16:01:41;;;;;;;7.78;3.40;;;22.00;29.70;;;;;;20680207;28;20054;-62
2021/04/05 16:12:08;;;;;;;5.45;3.10;;;22.10;29.70;;;;;;20679978;28;20026;-62
2021/04/05 16:22:09;;;;;;;5.30;2.70;;;22.10;29.30;;;;;;20679709;28;20057;-63
2021/04/05 16:32:12;;;;;;;8.80;3.28;;;22.10;30.10;;;;;;20678121;28;20109;-62
2021/04/05 16:42:18;;;;;;;6.43;2.88;;;22.10;30.60;;;;;;20676020;28;20049;-62
2021/04/05 16:52:32;;;;;;;6.32;3.58;;;22.00;30.60;;;;;;20675592;28;20023;-60
2021/04/05 17:02:34;;;;;;;7.20;2.90;;;22.00;30.30;;;;;;20732546;28;20172;-62
2021/04/05 17:12:47;;;;;;;6.30;3.55;;;21.90;31.10;;;;;;20674732;28;20370;-63
2021/04/05 17:23:02;;;;;;;6.80;3.40;;;21.90;30.90;;;;;;20673818;28;20483;-63
2021/04/05 17:33:37;;;;;;;5.93;3.10;;;21.80;30.70;;;;;;20673062;28;20058;-63
2021/04/05 17:43:54;;;;;;;5.32;3.50;;;21.90;30.70;;;;;;20672203;28;20132;-62
2021/04/05 17:54:15;;;;;;;4.80;3.08;;;21.70;30.80;;;;;;20670463;28;20136;-61
2021/04/05 18:04:36;;;;;;;7.65;4.13;;;21.50;30.60;;;;;;20670554;28;20026;-62
2021/04/05 18:15:21;;;;;;;8.63;3.60;;;21.20;31.40;;;;;;20669677;28;20041;-61
2021/04/05 18:25:55;;;;;;;7.80;4.22;;;21.20;31.30;;;;;;20421489;29;20039;-62
2021/04/05 18:36:06;;;;;;;8.18;3.70;;;21.00;31.40;;;;;;20420415;29;20056;-61
2021/04/05 18:46:20;;;;;;;9.85;5.05;;;20.70;32.40;;;;;;20419938;29;20414;-62
2021/04/05 18:56:25;;;;;;;11.15;6.18;;;20.40;32.50;;;;;;20563826;28;20061;-61
2021/04/05 19:06:45;;;;;;;8.38;4.38;;;20.20;32.90;;;;;;20666913;28;20459;-61
2021/04/05 19:16:52;;;;;;;13.63;6.10;;;20.10;33.10;;;;;;20667343;28;20030;-61
2021/04/05 19:27:24;;;;;;;9.50;5.65;;;19.80;33.80;;;;;;20666858;28;20038;-61
2021/04/05 19:38:02;;;;;;;10.52;5.72;;;19.70;34.40;;;;;;20666570;28;20030;-60
2021/04/05 19:48:10;;;;;;;11.80;6.03;;;19.60;35.00;;;;;;20666033;28;20025;-62
2021/04/05 19:58:42;;;;;;;8.45;4.30;;;19.20;35.20;;;;;;20665189;28;20431;-63
2021/04/05 20:09:04;;;;;;;13.50;4.63;;;19.20;36.20;;;;;;20665381;28;20448;-61
2021/04/05 20:19:09;;;;;;;12.70;5.00;;;19.10;36.70;;;;;;20688906;28;20043;-61
2021/04/05 20:29:23;;;;;;;10.80;4.97;;;18.80;37.10;;;;;;20611317;28;20110;-60
2021/04/05 20:39:37;;;;;;;8.17;4.27;;;18.70;37.80;;;;;;20596734;28;20039;-60
2021/04/05 20:50:02;;;;;;;11.10;4.55;;;18.70;37.80;;;;;;20595968;28;20062;-61
2021/04/05 21:00:35;;;;;;;9.63;4.70;;;18.60;37.90;;;;;;20649601;28;20113;-62
2021/04/05 21:10:37;;;;;;;10.53;5.07;;;18.30;38.90;;;;;;20571141;28;20074;-61
2021/04/05 21:20:58;;;;;;;11.00;5.22;;;18.20;39.50;;;;;;20586033;28;20049;-61
2021/04/05 21:31:19;;;;;;;10.57;5.60;;;18.00;40.00;;;;;;20586715;28;20031;-60
2021/04/05 21:41:49;;;;;;;9.85;5.60;;;17.80;40.80;;;;;;20619677;28;20054;-62
2021/04/05 21:51:53;;;;;;;10.50;5.30;;;17.80;40.50;;;;;;20672715;28;20065;-60
2021/04/05 22:02:12;;;;;;;11.13;5.53;;;17.60;38.90;;;;;;20671337;28;20062;-61
2021/04/05 22:12:21;;;;;;;11.18;5.95;;;17.50;41.10;;;;;;20670275;28;20030;-62
2021/04/05 22:22:22;;;;;;;9.45;5.53;;;17.20;41.60;;;;;;20670325;28;20482;-62
2021/04/05 22:32:24;;;;;;;9.30;5.53;;;17.10;40.90;;;;;;20669327;28;20038;-61
2021/04/05 22:42:27;;;;;;;7.95;3.80;;;16.90;43.20;;;;;;20667900;28;20038;-61
2021/04/05 22:53:03;;;;;;;6.40;3.20;;;16.60;42.30;;;;;;20668374;28;20101;-61
2021/04/05 23:03:23;;;;;;;4.18;2.90;;;16.50;41.10;;;;;;20578405;28;20620;-61
2021/04/05 23:13:31;;;;;;;4.60;2.70;;;16.20;41.60;;;;;;20577922;28;20031;-60
2021/04/05 23:23:36;;;;;;;4.43;2.90;;;15.80;42.30;;;;;;20578079;28;20050;-62
2021/04/05 23:33:48;;;;;;;5.10;2.80;;;15.60;42.70;;;;;;20601051;28;20085;-61
2021/04/05 23:44:09;;;;;;;4.15;2.70;;;15.40;43.40;;;;;;20666040;28;20034;-62
2021/04/05 23:54:15;;;;;;;7.45;3.00;;;15.30;43.20;;;;;;20668479;28;20042;-61
